createdAt,value
2024-03-16T00:00:11.881Z,8.88
2024-03-16T00:02:38.805Z,8.90
2024-03-16T00:05:05.878Z,8.96
2024-03-16T00:07:32.704Z,8.94
2024-03-16T00:09:59.491Z,8.86
2024-03-16T00:12:26.242Z,8.88
2024-03-16T00:14:53.043Z,8.98
2024-03-16T00:17:20.659Z,8.98
2024-03-16T00:19:47.315Z,8.93
2024-03-16T00:22:14.107Z,8.92
2024-03-16T00:24:40.787Z,8.95
2024-03-16T00:27:08.768Z,8.99
2024-03-16T00:29:35.536Z,8.94
2024-03-16T00:32:02.855Z,8.94
2024-03-16T00:34:29.627Z,8.95
2024-03-16T00:36:56.342Z,8.89
2024-03-16T00:39:25.101Z,8.89
2024-03-16T00:41:52.113Z,8.80
2024-03-16T00:44:19.540Z,8.79
2024-03-16T00:46:46.868Z,8.77
2024-03-16T00:49:13.747Z,8.73
2024-03-16T00:51:42.348Z,8.69
2024-03-16T00:54:12.553Z,8.69
2024-03-16T00:56:40.015Z,8.63
2024-03-16T00:59:06.862Z,8.61
2024-03-16T01:01:36.382Z,8.54
2024-03-16T01:04:03.851Z,8.44
2024-03-16T01:06:31.003Z,8.40
2024-03-16T01:08:58.162Z,8.37
2024-03-16T01:11:25.013Z,8.33
2024-03-16T01:13:52.451Z,8.34
2024-03-16T01:16:19.480Z,8.29
2024-03-16T01:18:46.356Z,8.21
2024-03-16T01:21:13.256Z,8.20
2024-03-16T01:23:40.220Z,8.17
2024-03-16T01:26:07.233Z,8.14
2024-03-16T01:28:34.732Z,8.10
2024-03-16T01:31:01.710Z,8.06
2024-03-16T01:33:28.643Z,8.00
2024-03-16T01:35:55.561Z,7.90
2024-03-16T01:38:22.491Z,7.80
2024-03-16T01:40:49.418Z,7.75
2024-03-16T01:43:20.923Z,7.73
2024-03-16T01:45:55.612Z,7.69
2024-03-16T01:48:23.893Z,7.66
2024-03-16T01:50:55.528Z,7.62
2024-03-16T01:53:22.509Z,7.61
2024-03-16T01:55:49.591Z,7.63
2024-03-16T01:58:19.828Z,7.71
2024-03-16T02:00:49.696Z,7.68
2024-03-16T02:03:16.692Z,7.64
2024-03-16T02:05:43.723Z,7.60
2024-03-16T02:08:10.595Z,7.58
2024-03-16T02:10:37.430Z,7.55
2024-03-16T02:13:04.586Z,7.52
2024-03-16T02:15:31.560Z,7.45
2024-03-16T02:17:59.570Z,7.44
2024-03-16T02:20:30.613Z,7.35
2024-03-16T02:22:57.417Z,7.47
2024-03-16T02:25:24.498Z,7.48
2024-03-16T02:27:51.684Z,7.44
2024-03-16T02:30:18.750Z,7.37
2024-03-16T02:32:45.637Z,7.29
2024-03-16T02:35:13.987Z,7.29
2024-03-16T02:37:40.824Z,7.29
2024-03-16T02:40:10.508Z,7.42
2024-03-16T02:42:37.244Z,7.41
2024-03-16T02:45:04.555Z,7.45
2024-03-16T02:47:31.438Z,7.46
2024-03-16T02:49:58.352Z,7.50
2024-03-16T02:52:25.041Z,7.54
2024-03-16T02:54:51.853Z,7.62
2024-03-16T02:57:18.683Z,7.67
2024-03-16T02:59:45.508Z,7.68
2024-03-16T03:02:12.333Z,7.72
2024-03-16T03:04:40.221Z,7.79
2024-03-16T03:07:14.395Z,7.85
2024-03-16T03:09:45.693Z,7.87
2024-03-16T03:12:12.720Z,7.87
2024-03-16T03:14:40.741Z,7.89
2024-03-16T03:17:08.642Z,7.95
2024-03-16T03:19:35.416Z,7.95
2024-03-16T03:22:02.184Z,7.94
2024-03-16T03:24:29.029Z,7.95
2024-03-16T03:26:55.856Z,7.97
2024-03-16T03:29:23.017Z,7.97
2024-03-16T03:31:49.766Z,8.03
2024-03-16T03:34:16.581Z,8.09
2024-03-16T03:36:45.583Z,8.11
2024-03-16T03:39:15.596Z,8.16
2024-03-16T03:41:42.524Z,8.17
2024-03-16T03:44:22.350Z,8.18
2024-03-16T03:46:52.785Z,8.15
2024-03-16T03:49:36.512Z,8.23
2024-03-16T03:52:06.637Z,8.24
2024-03-16T03:54:34.735Z,8.32
2024-03-16T03:57:01.643Z,8.36
2024-03-16T03:59:28.658Z,8.34
2024-03-16T04:01:55.526Z,8.36
2024-03-16T04:04:23.264Z,8.42
2024-03-16T04:06:50.153Z,8.42
2024-03-16T04:09:16.928Z,8.44
2024-03-16T04:11:43.667Z,8.48
2024-03-16T04:14:10.397Z,8.48
2024-03-16T04:16:37.081Z,8.47
2024-03-16T04:19:04.532Z,8.47
2024-03-16T04:21:31.801Z,8.45
2024-03-16T04:23:58.684Z,8.47
2024-03-16T04:26:25.964Z,8.51
2024-03-16T04:28:52.701Z,8.52
2024-03-16T04:31:19.541Z,8.55
2024-03-16T04:33:46.404Z,8.60
2024-03-16T04:36:13.943Z,8.64
2024-03-16T04:38:40.694Z,8.65
2024-03-16T04:41:07.551Z,8.70
2024-03-16T04:43:35.174Z,8.69
2024-03-16T04:46:02.256Z,8.70
2024-03-16T04:48:29.031Z,8.72
2024-03-16T04:50:57.191Z,8.75
2024-03-16T04:53:24.291Z,8.82
2024-03-16T04:55:53.534Z,8.80
2024-03-16T04:58:20.438Z,8.83
2024-03-16T05:00:47.419Z,8.83
2024-03-16T05:03:14.311Z,8.84
2024-03-16T05:05:41.126Z,8.82
2024-03-16T05:08:08.951Z,8.83
2024-03-16T05:10:35.963Z,8.80
2024-03-16T05:13:02.909Z,8.87
2024-03-16T05:15:29.882Z,8.89
2024-03-16T05:17:57.058Z,8.88
2024-03-16T05:20:24.017Z,8.91
2024-03-16T05:22:50.764Z,8.95
2024-03-16T05:25:17.634Z,8.94
2024-03-16T05:27:44.573Z,8.94
2024-03-16T05:30:16.745Z,8.93
2024-03-16T05:32:44.170Z,8.89
2024-03-16T05:35:11.867Z,8.92
2024-03-16T05:37:38.709Z,8.95
2024-03-16T05:40:05.735Z,8.97
2024-03-16T05:42:34.597Z,8.96
2024-03-16T05:45:01.663Z,8.90
2024-03-16T05:47:28.491Z,8.86
2024-03-16T05:49:55.878Z,8.85
2024-03-16T05:52:22.662Z,8.81
2024-03-16T05:54:49.459Z,8.80
2024-03-16T05:57:16.252Z,8.82
2024-03-16T05:59:43.077Z,8.83
2024-03-16T06:02:09.854Z,8.79
2024-03-16T06:04:36.698Z,8.80
2024-03-16T06:07:03.666Z,8.82
2024-03-16T06:09:30.553Z,8.86
2024-03-16T06:11:57.316Z,8.81
2024-03-16T06:14:24.143Z,8.82
2024-03-16T06:16:50.830Z,8.88
2024-03-16T06:19:17.680Z,8.89
2024-03-16T06:21:44.666Z,8.92
2024-03-16T06:24:11.406Z,8.92
2024-03-16T06:26:39.813Z,8.84
2024-03-16T06:29:06.852Z,8.85
2024-03-16T06:31:33.768Z,8.94
2024-03-16T06:34:00.907Z,8.97
2024-03-16T06:36:28.376Z,9.04
2024-03-16T06:38:55.309Z,9.03
2024-03-16T06:41:22.260Z,9.04
2024-03-16T06:43:49.015Z,9.01
2024-03-16T06:46:15.838Z,9.03
2024-03-16T06:48:43.569Z,9.05
2024-03-16T06:51:10.341Z,9.04
2024-03-16T06:53:36.984Z,9.08
2024-03-16T06:56:05.525Z,9.09
2024-03-16T06:58:32.360Z,9.08
2024-03-16T07:00:59.489Z,9.12
2024-03-16T07:03:26.268Z,9.14
2024-03-16T07:05:52.907Z,9.13
2024-03-16T07:08:19.729Z,9.19
2024-03-16T07:10:46.671Z,9.20
2024-03-16T07:13:13.607Z,9.28
2024-03-16T07:15:40.716Z,9.28
2024-03-16T07:18:08.354Z,9.38
2024-03-16T07:20:36.070Z,9.44
2024-03-16T07:23:03.832Z,9.45
2024-03-16T07:25:31.423Z,9.46
2024-03-16T07:27:58.158Z,9.46
2024-03-16T07:30:25.083Z,9.47
2024-03-16T07:32:52.245Z,9.44
2024-03-16T07:35:18.875Z,9.52
2024-03-16T07:37:45.829Z,9.60
2024-03-16T07:40:15.180Z,9.70
2024-03-16T07:42:45.435Z,9.68
2024-03-16T07:45:12.215Z,9.67
2024-03-16T07:47:38.943Z,9.71
2024-03-16T07:50:07.204Z,9.75
2024-03-16T07:52:34.992Z,9.73
2024-03-16T07:55:01.916Z,9.68
2024-03-16T07:57:29.764Z,9.67
2024-03-16T07:59:56.512Z,9.66
2024-03-16T08:02:23.536Z,9.75
2024-03-16T08:04:50.294Z,9.82
2024-03-16T08:07:17.499Z,9.81
2024-03-16T08:09:44.991Z,9.92
2024-03-16T08:12:11.753Z,9.91
2024-03-16T08:14:38.498Z,9.90
2024-03-16T08:17:05.540Z,9.95
2024-03-16T08:19:32.892Z,9.98
2024-03-16T08:21:59.593Z,10.01
2024-03-16T08:24:27.623Z,9.98
2024-03-16T08:26:54.308Z,9.90
2024-03-16T08:29:20.997Z,9.94
2024-03-16T08:31:47.743Z,9.96
2024-03-16T08:34:14.493Z,10.00
2024-03-16T08:36:41.952Z,10.06
2024-03-16T08:39:09.452Z,10.02
2024-03-16T08:41:37.751Z,10.05
2024-03-16T08:44:05.947Z,10.11
2024-03-16T08:46:33.402Z,10.19
2024-03-16T08:49:00.556Z,10.29
2024-03-16T08:51:27.461Z,10.34
2024-03-16T08:53:54.608Z,10.42
2024-03-16T08:56:21.575Z,10.47
2024-03-16T08:58:48.443Z,10.45
2024-03-16T09:01:15.272Z,10.39
2024-03-16T09:03:42.113Z,10.55
2024-03-16T09:06:08.997Z,10.63
2024-03-16T09:08:38.223Z,10.69
2024-03-16T09:11:05.505Z,10.66
2024-03-16T09:13:34.892Z,10.76
2024-03-16T09:16:07.239Z,10.80
2024-03-16T09:18:35.357Z,11.08
2024-03-16T09:21:03.881Z,11.14
2024-03-16T09:23:31.169Z,11.15
2024-03-16T09:25:58.108Z,11.18
2024-03-16T09:28:25.122Z,11.09
2024-03-16T09:30:56.215Z,10.99
2024-03-16T09:33:23.817Z,10.99
2024-03-16T09:35:53.725Z,10.93
2024-03-16T09:38:20.888Z,10.93
2024-03-16T09:40:53.286Z,10.91
